This is the latest recevied weather packets stored in our database for station/object E22ZMG-1. If no packets are shown the sender has not sent any weather packets the latest 10 day(s).
| Time | Temp. | Humidity | Pressure | Rain* | Wind** | Luminosity | Snow |
|---|---|---|---|---|---|---|---|
| 1777985838 | 36.11° C | 40% | 973 hPa | - | - | 0 W/m² | - |
| 1777985212 | 36.67° C | 39% | 973 hPa | - | - | 0 W/m² | - |
| 1777984586 | 36.67° C | 40% | 973 hPa | - | - | 0 W/m² | - |
| 1777983961 | 36.11° C | 40% | 972 hPa | - | - | 0 W/m² | - |
| 1777983336 | 36.67° C | 40% | 972 hPa | - | - | 0 W/m² | - |
| 1777982712 | 36.67° C | 41% | 972 hPa | - | - | 0 W/m² | - |
| 1777982084 | 37.22° C | 41% | 972 hPa | - | - | 0 W/m² | - |
| 1777981458 | 37.22° C | 40% | 972 hPa | - | - | 0 W/m² | - |
| 1777980833 | 37.22° C | 40% | 972 hPa | - | - | 0 W/m² | - |
| 1777980209 | 38.33° C | 39% | 972 hPa | - | - | 0 W/m² | - |
| 1777979583 | 38.33° C | 40% | 971 hPa | - | - | 0 W/m² | - |
| 1777978958 | 38.33° C | 39% | 971 hPa | - | - | 0 W/m² | - |
| 1777978332 | 38.89° C | 40% | 971 hPa | - | - | 0 W/m² | - |
| 1777977707 | 38.89° C | 40% | 971 hPa | - | - | 0 W/m² | - |
| 1777977080 | 39.44° C | 38% | 971 hPa | - | - | 0 W/m² | - |
| 1777976450 | 37.78° C | 41% | 971 hPa | - | - | 0 W/m² | - |
| 1777975821 | 39.44° C | 37% | 972 hPa | - | - | 0 W/m² | - |
| 1777975128 | 40° C | 37% | 972 hPa | - | - | 0 W/m² | - |
| 1777974503 | 39.44° C | 37% | 972 hPa | - | - | 0 W/m² | - |
| 1777973879 | 39.44° C | 37% | 972 hPa | - | - | 0 W/m² | - |
| 1777973253 | 40° C | 36% | 972 hPa | - | - | 0 W/m² | - |
| 1777972628 | 39.44° C | 37% | 972 hPa | - | - | 0 W/m² | - |
| 1777972002 | 39.44° C | 38% | 972 hPa | - | - | 0 W/m² | - |
| 1777971377 | 39.44° C | 38% | 972 hPa | - | - | 0 W/m² | - |
| 1777970752 | 38.89° C | 39% | 972 hPa | - | - | 0 W/m² | - |
* Rain since midnight (hover to see other rain measurements)
** Current wind speed in m/s (hover to see current wind gust speed)